Charleston, SC (29405)

10:56 PM EST on February 06, 2016 (GMT -0500)
West Ashley - Magnolia Rd | | Change Station
CLOSE
Current Station
Personal Weather Station
Location: Charleston, SC
Elevation: 13 ft
Nearby Weather Stations
Active Advisory: Wind Advisory

Elev 13 ft 32.78 °N, 79.99 °W | Updated 6 seconds ago

Mostly Cloudy
Mostly Cloudy
39.9 °F
Feels Like 40 °F
N
2.0
Wind Variable Wind from South
Gusts 5.0 mph

Today
High -- | Low -- °F
--% Chance of Precip.
Yesterday
High -- | Low -- °F
Precip. -- in
Pressure 30.19 in
Visibility 7.0 miles
Clouds Mostly Cloudy 3000 ft
Overcast 4500 ft
Windchill 40 °F
Dew Point 39 °F
Humidity 95%
Rainfall 0.30 in
Snow Depth Not available.
7:11 AM 5:56 PM
Waning Crescent, 3% visible
METAR KCHS 070256Z 02014G19KT 7SM RA BKN030 OVC045 05/02 A3019 RMK AO2 SLP221 P0012 60016 T00500022 55013
Pressure 30.19 in
Visibility 7.0 miles
Clouds Mostly Cloudy 3000 ft
Overcast 4500 ft
Windchill 40 °F
Dew Point 39 °F
Humidity 95%
Rainfall 0.30 in
Snow Depth Not available.
7:11 AM 5:56 PM
Waning Crescent, 3% visible
METAR KCHS 070256Z 02014G19KT 7SM RA BKN030 OVC045 05/02 A3019 RMK AO2 SLP221 P0012 60016 T00500022 55013

10-Day Weather Forecast

Almanac

Astronomy

Feb. 06, 2016 Rise Set
Actual Time
Civil Twilight
Nautical Twilight
Astronomical Twilight
Moon
Length of Visible Light
Length of Day
Tomorrow will be .
, % of the Moon is Illuminated

Today's Extremes

State Highs State Lows

Community

WunderPhotos

Upload Photos

1,891,154 photos uploaded!

WunderBlog® & News

Nearby

Air Quality

  Air Quality AQ Index Pollutant
Not available.

Snow Depth

Station Depth Elevation

Earthquake Activity

City Distance Mag. Time & Date
Minimum magnitude displayed is 2.5.

Coastal Water Temperatures

Place Temperature

Stations

Nearby Weather Stations

Station Location Temp. Windchill Dew Point Humidity Wind Precip. Elev Updated Type
                   

Watches & Warnings

Wind Advisory
Issued: 7:52 PM EST Feb. 6, 2016 – National Weather Service

... Wind Advisory remains in effect from 10 am to 7 PM EST
Sunday...

* locations... Charleston County... especially along and east of
U.S. 17.

* Winds... north to northwest 20-30 mph with gusts to 40 mph.

* Impacts... strong winds will make travel difficult... especially
for high profile vehicles and on elevated surfaces such as
bridges and overpasses. Light weight objects such as trash
cans and lawn furniture will also be blown around.

Precautionary/preparedness actions...

Be prepared for strong winds. Extra caution should be taken while
driving high profile vehicles and on bridges and overpasses.
Light weight objects such as trash cans and lawn furniture should
be secured.